Time;durP1;ratioP1;P1;durP2;ratioP2;P2;SDS_P1;SDS_P2;PMS_P1;PMS_P2;Temp;Humidity;BMP_temperature;BMP_pressure;BME280_temperature;BME280_humidity;BME280_pressure;Samples;Min_cycle;Max_cycle;Signal;HPM_P1;HPM_P2
2020/12/22 00:01:49;;;;;;;4.43;3.00;;;9.10;99.90;;;;;;5021029;28;20053;-73
2020/12/22 00:04:15;;;;;;;4.18;3.10;;;9.00;99.90;;;;;;5014395;28;20037;-74
2020/12/22 00:06:41;;;;;;;4.00;2.45;;;9.10;99.90;;;;;;5014428;28;20251;-72
2020/12/22 00:09:08;;;;;;;4.55;2.90;;;9.20;99.90;;;;;;5014616;28;20037;-72
2020/12/22 00:11:34;;;;;;;5.18;2.80;;;9.20;99.90;;;;;;5013774;28;20033;-73
2020/12/22 00:14:00;;;;;;;4.57;3.38;;;9.20;99.90;;;;;;5013779;28;20030;-73
2020/12/22 00:16:38;;;;;;;5.72;2.85;;;9.20;99.90;;;;;;5013753;28;20034;-73
2020/12/22 00:19:05;;;;;;;5.32;3.00;;;9.20;99.90;;;;;;5013923;28;20038;-72
2020/12/22 00:21:33;;;;;;;6.07;3.42;;;9.20;99.90;;;;;;5013500;28;20459;-73
2020/12/22 00:23:59;;;;;;;4.65;3.20;;;9.20;99.90;;;;;;5013565;28;20052;-72
2020/12/22 00:26:25;;;;;;;5.80;3.78;;;9.20;99.90;;;;;;5012323;28;20042;-73
2020/12/22 00:28:52;;;;;;;4.93;3.33;;;9.20;99.90;;;;;;5014041;28;20491;-72
2020/12/22 00:31:19;;;;;;;4.75;3.42;;;9.20;99.90;;;;;;5014231;28;20037;-72
2020/12/22 00:33:45;;;;;;;6.05;3.25;;;9.20;99.90;;;;;;5013537;28;20383;-72
2020/12/22 00:36:11;;;;;;;6.13;3.10;;;9.20;99.90;;;;;;5013802;28;20525;-72
2020/12/22 00:38:38;;;;;;;6.35;3.78;;;9.30;99.90;;;;;;5013403;28;20480;-72
2020/12/22 00:41:04;;;;;;;5.68;3.80;;;9.30;99.90;;;;;;5013737;28;20029;-72
2020/12/22 00:43:30;;;;;;;5.25;3.67;;;9.30;99.90;;;;;;5013227;28;20037;-74
2020/12/22 00:45:56;;;;;;;5.32;3.50;;;9.30;99.90;;;;;;5012754;28;20033;-75
2020/12/22 00:48:23;;;;;;;6.35;3.80;;;9.30;99.90;;;;;;5020443;28;20042;-72
2020/12/22 00:50:49;;;;;;;6.53;3.78;;;9.30;99.90;;;;;;5013445;28;20034;-74
2020/12/22 00:53:16;;;;;;;4.55;3.03;;;9.30;99.90;;;;;;5012284;28;20044;-72
2020/12/22 00:55:44;;;;;;;5.85;4.07;;;9.30;99.90;;;;;;5013032;28;20592;-73
2020/12/22 00:58:10;;;;;;;3.90;3.10;;;9.30;99.90;;;;;;5011389;28;20042;-72
2020/12/22 01:00:38;;;;;;;6.30;3.58;;;9.30;99.90;;;;;;5012155;28;20038;-72
2020/12/22 01:03:04;;;;;;;4.75;3.45;;;9.20;99.90;;;;;;5013142;28;20480;-72
2020/12/22 01:05:30;;;;;;;4.72;3.35;;;9.30;99.90;;;;;;5012946;28;20030;-72
2020/12/22 01:07:57;;;;;;;5.80;3.80;;;9.30;99.90;;;;;;5013379;28;20025;-73
2020/12/22 01:10:23;;;;;;;4.63;3.17;;;9.30;99.90;;;;;;5012709;28;20042;-74
2020/12/22 01:12:49;;;;;;;5.05;3.58;;;9.30;99.90;;;;;;5013063;28;20033;-73
2020/12/22 01:15:15;;;;;;;5.32;3.33;;;9.30;99.90;;;;;;5012928;28;20471;-73
2020/12/22 01:17:42;;;;;;;5.40;3.20;;;9.30;99.90;;;;;;5012506;28;20040;-74
2020/12/22 01:20:08;;;;;;;4.50;3.15;;;9.30;99.90;;;;;;5013008;28;20041;-74
2020/12/22 01:22:37;;;;;;;5.45;3.08;;;9.30;99.90;;;;;;5012430;28;20403;-74
2020/12/22 01:25:03;;;;;;;6.47;3.60;;;9.30;99.90;;;;;;5012520;28;20049;-74
2020/12/22 01:27:29;;;;;;;4.68;2.95;;;9.40;99.90;;;;;;5012486;28;20042;-74
2020/12/22 01:29:55;;;;;;;4.70;3.17;;;9.40;99.90;;;;;;5013263;28;20030;-74
2020/12/22 01:32:21;;;;;;;4.43;2.80;;;9.40;99.90;;;;;;5012697;28;20026;-74
2020/12/22 01:34:48;;;;;;;3.95;2.60;;;9.30;99.90;;;;;;5012238;28;20041;-74
2020/12/22 01:37:14;;;;;;;5.60;2.92;;;9.40;99.90;;;;;;5012851;28;20038;-74
2020/12/22 01:39:40;;;;;;;5.82;3.20;;;9.40;99.90;;;;;;5012651;28;20037;-73
2020/12/22 01:42:11;;;;;;;6.07;3.20;;;9.40;99.90;;;;;;5011893;28;20037;-73
2020/12/22 01:44:37;;;;;;;3.83;2.42;;;9.40;99.90;;;;;;5012073;28;20034;-73
2020/12/22 01:47:04;;;;;;;6.40;3.22;;;9.40;99.90;;;;;;5012467;28;20034;-74
2020/12/22 01:49:31;;;;;;;4.28;3.00;;;9.40;99.90;;;;;;5012030;28;20042;-74
2020/12/22 01:51:58;;;;;;;4.88;2.70;;;9.40;99.90;;;;;;5012281;28;20467;-74
2020/12/22 01:54:26;;;;;;;5.85;2.97;;;9.60;99.90;;;;;;5012137;28;20038;-75
2020/12/22 01:56:52;;;;;;;3.92;2.53;;;9.70;99.90;;;;;;5012354;28;20057;-74
2020/12/22 01:59:19;;;;;;;3.47;2.13;;;9.70;99.90;;;;;;5012900;28;20034;-74
2020/12/22 02:01:47;;;;;;;5.32;2.30;;;9.80;99.90;;;;;;5011842;28;20411;-74
2020/12/22 02:04:14;;;;;;;3.15;1.95;;;9.80;99.90;;;;;;5012710;28;20021;-74
2020/12/22 02:06:40;;;;;;;5.00;2.03;;;9.80;99.90;;;;;;5011905;28;20041;-74
2020/12/22 02:09:09;;;;;;;4.28;2.10;;;9.80;99.90;;;;;;5011596;28;20050;-74
2020/12/22 02:11:40;;;;;;;4.38;2.20;;;9.80;99.90;;;;;;5011785;28;20033;-73
2020/12/22 02:14:09;;;;;;;3.58;1.85;;;9.80;99.90;;;;;;5012448;28;20030;-74
2020/12/22 02:16:36;;;;;;;4.38;2.10;;;9.90;99.90;;;;;;5012048;28;20106;-74
2020/12/22 02:19:03;;;;;;;4.00;2.50;;;9.80;99.90;;;;;;5021849;28;20044;-73
2020/12/22 02:21:29;;;;;;;3.70;2.00;;;9.90;99.90;;;;;;5011720;28;20033;-74
2020/12/22 02:23:55;;;;;;;4.28;2.60;;;9.90;99.90;;;;;;5012187;28;20038;-74
2020/12/22 02:26:25;;;;;;;5.32;2.42;;;9.90;99.90;;;;;;5011839;28;20041;-74
2020/12/22 02:28:54;;;;;;;5.67;3.10;;;9.90;99.90;;;;;;5012599;28;20033;-74
2020/12/22 02:31:25;;;;;;;6.38;2.80;;;9.90;99.90;;;;;;5012323;28;20046;-76
2020/12/22 02:33:55;;;;;;;3.67;2.38;;;9.90;99.90;;;;;;5012402;28;20383;-74
2020/12/22 02:36:22;;;;;;;4.78;2.22;;;9.90;99.90;;;;;;5012268;28;20383;-74
2020/12/22 02:38:49;;;;;;;3.88;2.38;;;9.90;99.90;;;;;;5011658;28;20049;-74
2020/12/22 02:41:15;;;;;;;4.28;2.28;;;9.90;99.90;;;;;;5012397;28;20049;-74
2020/12/22 02:43:41;;;;;;;3.58;1.70;;;9.90;99.90;;;;;;5011411;28;20050;-74
2020/12/22 02:46:07;;;;;;;2.38;1.65;;;9.90;99.90;;;;;;5012182;28;20041;-74
2020/12/22 02:48:34;;;;;;;2.75;1.75;;;9.90;99.90;;;;;;5011297;28;20053;-75
2020/12/22 02:51:00;;;;;;;3.05;1.77;;;10.00;99.90;;;;;;5012008;28;20484;-74
2020/12/22 02:53:27;;;;;;;3.53;2.08;;;10.10;99.90;;;;;;5011632;28;20041;-75
2020/12/22 02:55:53;;;;;;;3.10;1.17;;;10.00;99.90;;;;;;5011851;28;20379;-75
2020/12/22 02:58:19;;;;;;;2.40;1.30;;;10.00;99.90;;;;;;5012361;28;20038;-74
2020/12/22 03:00:46;;;;;;;2.67;1.27;;;10.10;99.90;;;;;;5011626;28;20041;-75
2020/12/22 03:03:12;;;;;;;3.60;1.02;;;10.10;99.90;;;;;;5012105;28;20030;-74
2020/12/22 03:05:40;;;;;;;2.70;1.63;;;10.20;99.90;;;;;;5011327;28;20029;-75
2020/12/22 03:08:08;;;;;;;1.98;1.25;;;10.20;99.90;;;;;;5013312;28;20078;-75
2020/12/22 03:10:35;;;;;;;1.98;0.95;;;10.20;99.90;;;;;;5015294;28;20030;-74
2020/12/22 03:13:01;;;;;;;4.47;1.20;;;10.20;99.90;;;;;;5015877;28;20029;-74
2020/12/22 03:15:27;;;;;;;1.88;0.73;;;10.20;99.90;;;;;;5015130;28;20046;-76
2020/12/22 03:17:53;;;;;;;2.85;1.52;;;10.20;99.90;;;;;;5015038;28;20037;-72
2020/12/22 03:20:20;;;;;;;1.45;0.85;;;10.20;99.90;;;;;;5015187;28;20038;-74
2020/12/22 03:22:47;;;;;;;1.80;1.17;;;10.30;99.90;;;;;;5014568;28;20498;-74
2020/12/22 03:25:13;;;;;;;3.40;1.00;;;10.30;99.90;;;;;;5015226;28;20033;-75
2020/12/22 03:27:40;;;;;;;2.60;0.90;;;10.30;99.90;;;;;;5014543;28;20033;-74
2020/12/22 03:30:11;;;;;;;2.05;0.80;;;10.30;99.90;;;;;;5015203;28;20034;-72
2020/12/22 03:32:38;;;;;;;2.60;1.00;;;10.40;99.90;;;;;;5014914;28;20030;-72
2020/12/22 03:35:05;;;;;;;2.17;0.93;;;10.40;99.90;;;;;;5014596;28;20042;-74
2020/12/22 03:37:32;;;;;;;1.75;0.70;;;10.40;99.90;;;;;;5014258;28;20038;-75
2020/12/22 03:40:01;;;;;;;0.90;0.52;;;10.40;99.90;;;;;;5014874;28;20046;-74
2020/12/22 03:42:28;;;;;;;1.95;0.60;;;10.50;99.90;;;;;;5014242;28;20034;-76
2020/12/22 03:44:54;;;;;;;1.40;0.60;;;10.40;99.90;;;;;;5014891;28;20046;-74
2020/12/22 03:47:22;;;;;;;2.42;0.63;;;10.40;99.90;;;;;;5014777;28;20044;-74
2020/12/22 03:49:48;;;;;;;2.08;0.60;;;10.50;99.90;;;;;;5014502;28;20049;-74
2020/12/22 03:52:14;;;;;;;1.17;0.68;;;10.50;99.90;;;;;;5014573;28;20376;-75
2020/12/22 03:54:41;;;;;;;1.08;0.60;;;10.50;99.90;;;;;;5014084;28;20033;-74
2020/12/22 03:57:07;;;;;;;1.33;0.60;;;10.50;99.90;;;;;;5014434;28;20034;-75
2020/12/22 03:59:34;;;;;;;2.15;0.40;;;10.50;99.90;;;;;;5014586;28;20038;-72
2020/12/22 04:02:00;;;;;;;1.17;0.55;;;10.50;99.90;;;;;;5014252;28;20030;-72
2020/12/22 04:04:27;;;;;;;0.90;0.43;;;10.50;99.90;;;;;;5013982;28;20034;-73
2020/12/22 04:06:54;;;;;;;0.80;0.40;;;10.50;99.90;;;;;;5014055;28;20034;-72
2020/12/22 04:09:21;;;;;;;1.52;0.65;;;10.60;99.90;;;;;;5014402;28;20025;-73
2020/12/22 04:11:49;;;;;;;1.10;0.52;;;10.60;99.90;;;;;;5013753;28;20033;-73
2020/12/22 04:14:17;;;;;;;1.70;0.70;;;10.60;99.90;;;;;;5014319;28;20037;-72
2020/12/22 04:16:44;;;;;;;1.02;0.40;;;10.60;99.90;;;;;;5013558;28;20060;-72
2020/12/22 04:19:10;;;;;;;1.10;0.50;;;10.60;99.90;;;;;;5014346;28;20045;-72
2020/12/22 04:21:37;;;;;;;1.92;0.40;;;10.60;99.90;;;;;;5013566;28;20073;-72
2020/12/22 04:24:04;;;;;;;1.75;0.38;;;10.60;99.90;;;;;;5013477;28;20054;-72
2020/12/22 04:26:31;;;;;;;1.67;0.50;;;10.70;99.90;;;;;;5013638;28;20042;-73
2020/12/22 04:28:58;;;;;;;1.00;0.40;;;10.70;99.90;;;;;;5013778;28;20026;-73
2020/12/22 04:31:24;;;;;;;1.20;0.50;;;10.70;99.90;;;;;;5014055;28;20455;-71
2020/12/22 04:33:55;;;;;;;0.75;0.30;;;10.80;99.90;;;;;;5013618;28;20037;-73
2020/12/22 04:36:22;;;;;;;1.50;0.30;;;10.80;99.90;;;;;;5013806;28;20045;-72
2020/12/22 04:38:49;;;;;;;0.75;0.30;;;10.80;99.90;;;;;;5013102;28;20041;-72
2020/12/22 04:41:18;;;;;;;1.25;0.50;;;10.80;99.90;;;;;;5013647;28;20034;-73
2020/12/22 04:43:46;;;;;;;0.70;0.30;;;10.80;99.90;;;;;;5013283;28;20041;-73
2020/12/22 04:46:17;;;;;;;2.17;0.45;;;10.80;99.90;;;;;;5013290;28;20030;-72
2020/12/22 04:48:50;;;;;;;1.02;0.40;;;10.80;99.90;;;;;;5011778;28;20041;-73
2020/12/22 04:51:17;;;;;;;1.08;0.57;;;10.90;99.90;;;;;;5012397;28;20045;-72
2020/12/22 04:53:44;;;;;;;1.58;0.60;;;10.90;99.90;;;;;;5012512;28;20053;-72
2020/12/22 04:56:11;;;;;;;1.00;0.45;;;10.90;99.90;;;;;;5013077;28;20042;-72
2020/12/22 04:58:37;;;;;;;1.02;0.40;;;10.80;99.90;;;;;;5012648;28;20029;-73
2020/12/22 05:01:04;;;;;;;1.00;0.50;;;10.80;99.90;;;;;;5013383;28;20034;-72
2020/12/22 05:03:30;;;;;;;0.68;0.50;;;10.80;99.90;;;;;;5012943;28;20360;-73
2020/12/22 05:05:56;;;;;;;0.93;0.40;;;10.80;99.90;;;;;;5012950;28;20032;-73
2020/12/22 05:08:22;;;;;;;2.40;0.50;;;10.80;99.90;;;;;;5013013;28;20474;-73
2020/12/22 05:10:51;;;;;;;0.60;0.40;;;10.80;99.90;;;;;;5012874;28;20041;-74
2020/12/22 05:13:19;;;;;;;2.20;0.45;;;10.90;99.90;;;;;;5013062;28;20423;-74
2020/12/22 05:15:50;;;;;;;0.90;0.50;;;10.90;99.90;;;;;;5011816;28;20057;-75
2020/12/22 05:18:23;;;;;;;0.75;0.45;;;10.90;99.90;;;;;;5012944;28;20046;-74
2020/12/22 05:20:50;;;;;;;2.65;0.47;;;10.90;99.90;;;;;;5012734;28;20034;-74
2020/12/22 05:23:19;;;;;;;1.65;0.30;;;10.90;99.90;;;;;;5012834;28;20368;-73
2020/12/22 05:25:47;;;;;;;1.95;0.30;;;10.90;99.90;;;;;;5012247;28;20040;-73
2020/12/22 05:28:18;;;;;;;0.98;0.40;;;10.90;99.90;;;;;;5012690;28;20032;-73
2020/12/22 05:30:46;;;;;;;1.17;0.50;;;10.80;99.90;;;;;;5012079;28;20387;-72
2020/12/22 05:33:13;;;;;;;1.88;0.25;;;10.90;99.90;;;;;;5012369;28;20368;-73
2020/12/22 05:35:41;;;;;;;0.90;0.50;;;10.90;99.90;;;;;;5012391;28;20038;-73
2020/12/22 05:38:08;;;;;;;0.70;0.40;;;11.00;99.90;;;;;;5012502;28;20045;-74
2020/12/22 05:40:34;;;;;;;1.15;0.40;;;11.00;99.90;;;;;;5012300;28;20098;-74
2020/12/22 05:43:01;;;;;;;0.80;0.40;;;11.00;99.90;;;;;;5012715;28;20034;-74
2020/12/22 05:45:35;;;;;;;0.35;0.17;;;10.90;99.90;;;;;;5012641;28;20455;-74
2020/12/22 05:48:02;;;;;;;0.55;0.30;;;10.90;99.90;;;;;;5012187;28;20486;-74
2020/12/22 05:50:28;;;;;;;1.17;0.40;;;11.00;99.90;;;;;;5012259;28;20094;-74
2020/12/22 05:52:56;;;;;;;0.50;0.30;;;11.00;99.90;;;;;;5012310;28;20448;-74
2020/12/22 05:55:30;;;;;;;0.88;0.30;;;11.00;99.90;;;;;;5012586;28;20037;-73
2020/12/22 05:58:07;;;;;;;2.00;0.60;;;11.00;99.90;;;;;;5012671;28;20114;-74
2020/12/22 06:00:35;;;;;;;1.02;0.55;;;11.00;99.90;;;;;;5013461;28;20037;-74
2020/12/22 06:03:07;;;;;;;2.55;0.40;;;11.00;99.90;;;;;;5012922;28;20029;-74
2020/12/22 06:05:39;;;;;;;1.40;0.50;;;11.00;99.90;;;;;;5012175;28;20045;-74
2020/12/22 06:08:07;;;;;;;2.50;0.60;;;11.00;99.90;;;;;;5012784;28;20049;-74
2020/12/22 06:10:36;;;;;;;0.95;0.40;;;11.10;99.90;;;;;;5012080;28;20041;-74
2020/12/22 06:13:03;;;;;;;1.40;0.52;;;11.00;99.90;;;;;;5012083;28;20030;-74
2020/12/22 06:15:31;;;;;;;1.88;0.50;;;11.00;99.90;;;;;;5011956;28;20395;-76
2020/12/22 06:17:57;;;;;;;2.42;0.95;;;11.00;99.90;;;;;;5012269;28;20052;-74
2020/12/22 06:20:26;;;;;;;1.08;0.57;;;11.00;99.90;;;;;;5012387;28;20041;-74
2020/12/22 06:23:03;;;;;;;2.30;0.50;;;11.00;99.90;;;;;;5011310;28;20479;-73
2020/12/22 06:25:30;;;;;;;0.80;0.40;;;11.00;99.90;;;;;;5012150;28;20033;-75
2020/12/22 06:27:57;;;;;;;1.50;0.68;;;11.00;99.90;;;;;;5012093;28;20054;-73
2020/12/22 06:30:38;;;;;;;1.10;0.55;;;11.00;99.90;;;;;;5011724;28;20046;-73
2020/12/22 06:33:35;;;;;;;1.83;0.60;;;11.00;99.90;;;;;;5012506;28;20479;-73
2020/12/22 06:36:06;;;;;;;2.05;0.70;;;11.00;99.90;;;;;;5014397;28;20069;-73
2020/12/22 06:39:02;;;;;;;3.38;0.45;;;11.00;99.90;;;;;;5011633;28;20049;-72
2020/12/22 06:41:34;;;;;;;1.10;0.60;;;11.00;99.90;;;;;;5008261;28;20053;-73
2020/12/22 06:44:14;;;;;;;2.30;0.63;;;11.00;99.90;;;;;;5015509;28;20042;-72
2020/12/22 06:46:42;;;;;;;1.30;0.60;;;11.00;99.90;;;;;;5015106;28;20041;-73
2020/12/22 06:49:09;;;;;;;1.92;0.68;;;11.00;99.90;;;;;;5016267;28;20041;-73
2020/12/22 06:51:38;;;;;;;0.90;0.57;;;11.00;99.90;;;;;;5014710;28;20046;-71
2020/12/22 06:54:25;;;;;;;1.48;0.65;;;11.00;99.90;;;;;;5015539;28;20049;-73
2020/12/22 06:56:51;;;;;;;1.35;0.65;;;11.00;99.90;;;;;;5016046;28;20471;-72
2020/12/22 06:59:47;;;;;;;2.03;0.68;;;11.00;99.90;;;;;;5027212;28;20363;-73
2020/12/22 07:02:38;;;;;;;2.17;0.70;;;11.00;99.90;;;;;;5015918;28;20351;-73
2020/12/22 07:05:06;;;;;;;2.45;0.85;;;11.00;99.90;;;;;;5015700;28;20137;-72
2020/12/22 07:07:54;;;;;;;11.77;0.77;;;11.00;99.90;;;;;;5014450;28;20034;-72
2020/12/22 07:10:22;;;;;;;1.55;0.63;;;11.00;99.90;;;;;;5015356;28;20038;-74
2020/12/22 07:12:50;;;;;;;1.20;0.52;;;11.00;99.90;;;;;;5014571;28;20042;-72
2020/12/22 07:15:20;;;;;;;2.35;0.77;;;11.10;99.90;;;;;;5015780;28;20036;-75
2020/12/22 07:17:46;;;;;;;0.95;0.60;;;11.10;99.90;;;;;;5014941;28;20467;-75
2020/12/22 07:20:13;;;;;;;1.77;0.63;;;11.10;99.90;;;;;;5014781;28;20030;-75
2020/12/22 07:22:39;;;;;;;2.20;0.90;;;11.10;99.90;;;;;;5014704;28;20474;-71
2020/12/22 07:25:06;;;;;;;2.70;0.77;;;11.10;99.90;;;;;;5015154;28;20421;-73
2020/12/22 07:27:33;;;;;;;1.42;0.68;;;11.10;99.90;;;;;;5014677;28;20037;-72
2020/12/22 07:29:59;;;;;;;2.92;0.68;;;11.10;99.90;;;;;;5015321;28;20382;-73
2020/12/22 07:32:25;;;;;;;1.77;0.40;;;11.20;99.90;;;;;;5015520;28;20026;-72
2020/12/22 07:34:52;;;;;;;0.93;0.75;;;11.20;99.90;;;;;;5014579;28;20034;-73
2020/12/22 07:37:18;;;;;;;1.13;0.50;;;11.20;99.90;;;;;;5014629;28;20034;-73
2020/12/22 07:39:44;;;;;;;1.95;0.40;;;11.30;99.90;;;;;;5014691;28;20037;-72
2020/12/22 07:42:17;;;;;;;2.35;0.30;;;11.30;99.90;;;;;;5015280;28;20042;-72
2020/12/22 07:44:44;;;;;;;1.02;0.30;;;11.40;99.90;;;;;;5014694;28;20053;-73
2020/12/22 07:47:12;;;;;;;1.38;0.50;;;11.40;99.90;;;;;;5017073;28;20045;-72
2020/12/22 07:49:39;;;;;;;0.57;0.30;;;11.40;99.90;;;;;;5014355;28;20490;-73
2020/12/22 07:52:05;;;;;;;0.60;0.40;;;11.50;99.90;;;;;;5014654;28;20383;-72
2020/12/22 07:54:32;;;;;;;0.82;0.40;;;11.50;99.90;;;;;;5014008;28;20041;-74
2020/12/22 07:57:00;;;;;;;2.30;0.77;;;11.50;99.90;;;;;;5015276;28;20049;-77
2020/12/22 07:59:27;;;;;;;1.75;0.68;;;11.50;99.90;;;;;;5015477;28;20034;-77
2020/12/22 08:01:54;;;;;;;0.95;0.50;;;11.50;99.90;;;;;;5014803;28;20038;-75
2020/12/22 08:04:26;;;;;;;3.17;0.60;;;11.60;99.90;;;;;;5014483;28;20045;-73
2020/12/22 08:06:57;;;;;;;1.80;0.38;;;11.60;99.90;;;;;;5014110;28;20048;-73
2020/12/22 08:09:31;;;;;;;0.85;0.43;;;11.60;99.90;;;;;;5014306;28;20045;-73
2020/12/22 08:12:00;;;;;;;2.05;0.50;;;11.60;99.90;;;;;;5013511;28;20046;-73
2020/12/22 08:14:28;;;;;;;1.60;0.75;;;11.60;99.90;;;;;;5014644;28;20041;-73
2020/12/22 08:17:16;;;;;;;2.15;0.38;;;11.60;99.90;;;;;;5013890;28;20042;-72
2020/12/22 08:19:43;;;;;;;2.20;0.80;;;11.60;99.90;;;;;;5013360;28;20050;-73
2020/12/22 08:22:13;;;;;;;1.25;0.50;;;11.60;99.90;;;;;;5014100;28;20487;-73
2020/12/22 08:24:40;;;;;;;0.82;0.40;;;11.60;99.90;;;;;;5013150;28;20042;-73
2020/12/22 08:27:09;;;;;;;0.95;0.40;;;11.60;99.90;;;;;;5013261;28;20033;-72
2020/12/22 08:29:38;;;;;;;2.45;0.60;;;11.70;99.90;;;;;;5012235;28;20030;-72
2020/12/22 08:32:05;;;;;;;2.03;0.52;;;11.70;99.90;;;;;;5012865;28;20471;-73
2020/12/22 08:34:32;;;;;;;1.17;0.40;;;11.70;99.90;;;;;;5012918;28;20050;-73
2020/12/22 08:37:09;;;;;;;2.95;0.50;;;11.70;99.90;;;;;;5019954;28;20053;-73
2020/12/22 08:39:39;;;;;;;2.38;0.60;;;11.80;99.90;;;;;;5026928;28;20029;-73
2020/12/22 08:42:10;;;;;;;1.05;0.60;;;11.80;99.90;;;;;;5012609;28;20029;-72
2020/12/22 08:44:39;;;;;;;2.38;0.40;;;11.80;99.90;;;;;;5012388;28;20121;-72
2020/12/22 08:47:13;;;;;;;1.30;0.68;;;11.80;99.90;;;;;;5012793;28;20034;-72
2020/12/22 08:49:39;;;;;;;1.90;0.50;;;11.90;99.90;;;;;;5012478;28;20360;-72
2020/12/22 08:52:17;;;;;;;3.42;1.65;;;11.90;99.90;;;;;;5012427;28;20048;-73
2020/12/22 08:54:45;;;;;;;2.90;1.13;;;11.90;99.90;;;;;;5012337;28;20045;-73
2020/12/22 08:57:15;;;;;;;8.43;1.85;;;12.00;99.90;;;;;;5014784;28;20041;-73
2020/12/22 08:59:42;;;;;;;4.60;1.98;;;12.00;99.90;;;;;;5014303;28;20046;-72
2020/12/22 09:02:31;;;;;;;11.43;4.93;;;12.00;99.90;;;;;;5012339;28;20403;-72
2020/12/22 09:05:09;;;;;;;5.07;2.80;;;12.10;99.90;;;;;;5011629;28;20030;-73
2020/12/22 09:07:35;;;;;;;8.65;5.05;;;12.10;99.90;;;;;;5019747;28;20033;-73
2020/12/22 09:10:09;;;;;;;43.25;20.23;;;12.10;99.90;;;;;;5014853;28;20041;-73
2020/12/22 09:12:36;;;;;;;33.28;15.55;;;12.10;99.90;;;;;;5011711;28;20046;-73
2020/12/22 09:15:06;;;;;;;32.92;18.23;;;12.10;99.90;;;;;;5014793;28;20034;-73
2020/12/22 09:17:34;;;;;;;17.15;9.43;;;12.10;99.90;;;;;;5016079;28;20038;-73
2020/12/22 09:20:00;;;;;;;13.43;6.47;;;12.10;99.90;;;;;;5011517;28;20038;-73
2020/12/22 09:22:30;;;;;;;15.68;8.48;;;12.20;99.90;;;;;;5014978;28;20034;-73
2020/12/22 09:24:57;;;;;;;4.65;2.15;;;12.10;99.90;;;;;;4996764;28;620030;-73
2020/12/22 09:27:31;;;;;;;16.67;8.38;;;12.10;99.90;;;;;;5013155;28;20034;-73
2020/12/22 09:29:58;;;;;;;13.70;7.38;;;12.10;99.90;;;;;;5013194;28;20467;-75
2020/12/22 09:32:24;;;;;;;13.68;8.07;;;12.10;99.90;;;;;;5013192;28;20379;-76
2020/12/22 09:34:51;;;;;;;17.92;9.48;;;12.10;99.90;;;;;;5014956;28;20037;-75
2020/12/22 09:37:17;;;;;;;32.95;16.08;;;12.10;99.90;;;;;;5013254;28;20379;-76
2020/12/22 09:39:45;;;;;;;19.08;9.25;;;12.20;99.90;;;;;;5012798;28;20030;-75
2020/12/22 09:42:12;;;;;;;16.75;7.53;;;12.20;99.90;;;;;;5013076;28;20423;-74
2020/12/22 09:44:38;;;;;;;13.65;5.93;;;12.20;99.90;;;;;;5012393;28;20471;-75
2020/12/22 09:47:04;;;;;;;9.43;4.65;;;12.30;99.90;;;;;;5012646;28;20045;-75
2020/12/22 09:49:30;;;;;;;54.90;26.48;;;12.30;99.90;;;;;;5012469;28;20399;-74
2020/12/22 09:51:57;;;;;;;23.67;13.20;;;12.20;99.90;;;;;;5012179;28;20070;-75
2020/12/22 09:54:23;;;;;;;11.10;6.25;;;12.30;99.90;;;;;;5012858;28;20455;-76
2020/12/22 09:56:49;;;;;;;6.20;3.15;;;12.30;99.90;;;;;;5021003;28;20061;-76
2020/12/22 09:59:17;;;;;;;1.58;0.70;;;12.40;99.90;;;;;;5020845;28;20040;-76
2020/12/22 10:01:44;;;;;;;2.92;1.20;;;12.40;99.90;;;;;;5019079;28;20030;-77
2020/12/22 10:04:11;;;;;;;3.53;1.67;;;12.40;99.90;;;;;;5013868;28;20065;-77
2020/12/22 10:06:38;;;;;;;3.85;2.00;;;12.40;99.90;;;;;;5012615;28;20391;-76
2020/12/22 10:09:05;;;;;;;15.55;9.73;;;12.40;99.90;;;;;;5012249;28;20041;-76
2020/12/22 10:11:33;;;;;;;7.95;3.88;;;12.40;99.90;;;;;;5015809;28;20037;-76
2020/12/22 10:14:00;;;;;;;5.28;2.92;;;12.40;99.90;;;;;;5027055;28;20037;-76
2020/12/22 10:16:26;;;;;;;29.50;16.20;;;12.40;99.90;;;;;;5019664;28;20037;-76
2020/12/22 10:18:52;;;;;;;9.48;5.30;;;12.40;99.90;;;;;;5012721;28;20456;-77
2020/12/22 10:21:20;;;;;;;13.63;7.13;;;12.50;99.90;;;;;;5012522;28;20045;-76
2020/12/22 10:23:47;;;;;;;9.57;4.22;;;12.50;99.90;;;;;;5012347;28;20407;-77
2020/12/22 10:26:19;;;;;;;5.60;2.80;;;12.50;99.90;;;;;;5012471;28;20042;-76
2020/12/22 10:28:47;;;;;;;3.20;1.88;;;12.60;99.90;;;;;;5012321;28;20038;-77
2020/12/22 10:31:15;;;;;;;6.05;3.50;;;12.60;99.90;;;;;;5012313;28;20029;-77
2020/12/22 10:33:42;;;;;;;5.13;3.30;;;12.50;99.90;;;;;;5012308;28;20037;-76
2020/12/22 10:36:18;;;;;;;6.63;4.35;;;12.50;99.90;;;;;;5012500;28;20026;-77
2020/12/22 10:38:45;;;;;;;3.63;1.90;;;12.60;99.90;;;;;;5012382;28;20033;-77
2020/12/22 10:41:11;;;;;;;7.60;4.63;;;12.60;99.90;;;;;;5012458;28;20045;-77
2020/12/22 10:43:38;;;;;;;7.50;4.47;;;12.60;99.90;;;;;;5012442;28;20033;-77
2020/12/22 10:46:04;;;;;;;5.18;2.85;;;12.70;99.90;;;;;;5013082;28;20030;-77
2020/12/22 10:48:31;;;;;;;12.27;7.55;;;12.70;99.90;;;;;;5017163;28;20044;-77
2020/12/22 10:50:57;;;;;;;4.53;2.53;;;12.80;99.90;;;;;;5023913;28;20037;-77
2020/12/22 10:53:25;;;;;;;12.52;5.60;;;12.80;99.90;;;;;;5018719;28;20030;-77
2020/12/22 10:55:53;;;;;;;14.23;7.70;;;12.70;99.90;;;;;;5011968;28;20030;-77
2020/12/22 10:58:19;;;;;;;14.38;8.40;;;12.80;99.90;;;;;;5012325;28;20498;-77
2020/12/22 11:00:47;;;;;;;20.80;12.52;;;12.80;99.90;;;;;;5012076;28;20034;-77
2020/12/22 11:03:20;;;;;;;10.80;5.95;;;12.90;99.90;;;;;;5014246;28;20388;-77
2020/12/22 11:06:21;;;;;;;4.95;1.23;;;12.90;99.90;;;;;;5013707;28;20037;-77
2020/12/22 11:08:48;;;;;;;;;;;13.00;99.90;;;;;;5012506;28;20049;-77
2020/12/22 11:11:15;;;;;;;12.30;5.70;;;13.00;99.90;;;;;;5012474;28;19917;-78
2020/12/22 11:13:41;;;;;;;14.20;8.48;;;13.00;99.90;;;;;;5012636;28;20487;-77
2020/12/22 11:16:07;;;;;;;18.63;11.57;;;13.10;99.90;;;;;;5020552;28;20045;-78
2020/12/22 11:18:40;;;;;;;7.88;4.18;;;13.10;99.90;;;;;;5011125;28;20423;-76
2020/12/22 11:21:11;;;;;;;9.50;5.05;;;13.20;99.90;;;;;;5012326;28;20034;-76
2020/12/22 11:23:38;;;;;;;5.78;2.72;;;13.20;99.90;;;;;;5013377;28;20045;-77
2020/12/22 11:26:04;;;;;;;9.98;4.63;;;13.20;99.90;;;;;;5012291;28;20471;-76
2020/12/22 11:28:31;;;;;;;5.28;2.72;;;13.20;99.90;;;;;;5012316;28;20029;-77
2020/12/22 11:30:57;;;;;;;3.20;1.63;;;13.30;99.90;;;;;;5018461;28;20583;-77
2020/12/22 11:33:23;;;;;;;3.55;1.67;;;13.30;99.90;;;;;;5030027;28;20510;-77
2020/12/22 11:35:49;;;;;;;6.78;3.80;;;13.30;99.90;;;;;;5014147;28;20042;-77
2020/12/22 11:38:16;;;;;;;3.40;1.92;;;13.20;99.90;;;;;;5015220;28;20040;-77
2020/12/22 11:40:42;;;;;;;5.28;3.13;;;13.20;99.90;;;;;;5014331;28;20034;-77
2020/12/22 11:43:09;;;;;;;10.13;5.72;;;13.30;99.90;;;;;;5028912;28;20045;-77
2020/12/22 11:45:36;;;;;;;9.63;4.57;;;13.40;99.90;;;;;;5014706;28;20030;-77
2020/12/22 11:48:02;;;;;;;9.48;5.45;;;13.40;99.90;;;;;;5014922;28;20037;-77
2020/12/22 11:50:29;;;;;;;12.63;5.78;;;13.40;99.90;;;;;;5024532;28;20042;-77
2020/12/22 11:52:55;;;;;;;2.63;1.30;;;13.40;99.90;;;;;;5022841;28;20494;-77
2020/12/22 11:55:22;;;;;;;9.68;4.13;;;13.40;99.90;;;;;;5029971;28;20041;-77
2020/12/22 11:57:48;;;;;;;3.05;1.75;;;13.50;99.90;;;;;;5014501;28;20030;-77
2020/12/22 12:00:14;;;;;;;2.67;1.17;;;13.60;99.90;;;;;;5014781;28;20045;-77
2020/12/22 12:02:40;;;;;;;4.63;2.50;;;13.60;99.90;;;;;;5013999;28;20045;-77
2020/12/22 12:05:06;;;;;;;4.10;1.05;;;13.70;99.90;;;;;;5014670;28;20064;-77
2020/12/22 12:07:33;;;;;;;2.38;1.05;;;13.80;99.90;;;;;;5014474;28;20041;-77
2020/12/22 12:10:01;;;;;;;7.30;3.65;;;13.80;99.90;;;;;;5013687;28;20459;-76
2020/12/22 12:12:28;;;;;;;4.30;0.90;;;13.90;99.90;;;;;;5014701;28;20030;-77
2020/12/22 12:14:55;;;;;;;1.88;0.52;;;13.80;99.90;;;;;;5019784;28;20482;-77
2020/12/22 12:17:21;;;;;;;2.33;1.20;;;13.70;99.90;;;;;;5028850;28;20049;-77
2020/12/22 12:19:47;;;;;;;2.72;1.30;;;13.80;99.90;;;;;;5014291;28;20045;-77
2020/12/22 12:22:13;;;;;;;2.85;1.20;;;13.80;99.90;;;;;;5036184;28;20049;-77
2020/12/22 12:24:40;;;;;;;4.68;1.50;;;13.80;99.90;;;;;;5012642;28;20053;-77
2020/12/22 12:27:06;;;;;;;1.45;0.63;;;13.80;99.90;;;;;;5014605;28;20398;-78
2020/12/22 12:29:32;;;;;;;6.35;3.13;;;13.90;99.90;;;;;;5013598;28;20058;-77
2020/12/22 12:31:58;;;;;;;2.40;0.65;;;13.90;99.90;;;;;;5013898;28;20029;-77
2020/12/22 12:34:24;;;;;;;0.93;0.20;;;13.80;99.90;;;;;;5024395;28;20398;-77
2020/12/22 12:36:53;;;;;;;1.02;0.47;;;13.70;99.90;;;;;;5016890;28;20037;-77
2020/12/22 12:39:20;;;;;;;0.95;0.32;;;13.80;99.90;;;;;;5014392;28;20030;-77
2020/12/22 12:41:49;;;;;;;1.08;0.40;;;13.80;99.90;;;;;;5018018;28;20048;-79
2020/12/22 12:44:17;;;;;;;1.80;0.32;;;13.80;99.90;;;;;;5014328;28;20041;-83
2020/12/22 12:46:44;;;;;;;0.85;0.20;;;13.70;99.90;;;;;;5013306;28;20026;-80
2020/12/22 12:49:12;;;;;;;1.10;0.40;;;13.70;99.90;;;;;;5013332;28;20375;-80
2020/12/22 12:51:43;;;;;;;1.10;0.28;;;13.70;99.90;;;;;;5019527;28;20067;-80
2020/12/22 12:54:14;;;;;;;1.00;0.70;;;13.70;99.90;;;;;;5013591;28;20383;-79